Evanston, Indiana
Current Conditions -  °F | °C
As of 10:55 PM on Saturday 22 Nov 2014 (Local Time) from KHNB Reporting Station
Broken Clouds Broken Clouds  
Wind Chill: 12°   Ceiling: 12000
Heat Index: 12°   Visibility: 10mi
Dew Point:   Wind: 10mph
Humidity: 51%   Direction: 180°S
Pressure: 30.02"   Gusts: NA
Location:  38.04°N, 86.84°W
Report Text: KHNB 230455Z AUTO 18009KT 10SM BKN120 12/02 A3002 RMK AO1
Loading
Personal Weather Stations






























Interactive Weather Map New forecast layout! Learn more

10-Day Weather Forecast

Advertisements
Track Severe Weather on mobile